Time;durP1;ratioP1;P1;durP2;ratioP2;P2;SDS_P1;SDS_P2;PMS_P1;PMS_P2;Temp;Humidity;BMP_temperature;BMP_pressure;BME280_temperature;BME280_humidity;BME280_pressure;Samples;Min_cycle;Max_cycle;Signal;HPM_P1;HPM_P2
2024/02/29 00:00:59;;;;;;;25.90;13.73;;;0.50;99.90;;;;;;2045494;28;20270;-72
2024/02/29 00:02:00;;;;;;;27.27;13.47;;;0.50;99.90;;;;;;2052408;28;20190;-71
2024/02/29 00:03:00;;;;;;;28.97;15.30;;;0.50;99.90;;;;;;2058585;28;20645;-71
2024/02/29 00:04:01;;;;;;;26.80;13.30;;;0.60;99.90;;;;;;2049948;28;20249;-73
2024/02/29 00:05:02;;;;;;;25.73;14.33;;;0.60;99.90;;;;;;2045931;28;20184;-73
2024/02/29 00:06:03;;;;;;;28.20;13.90;;;0.70;99.90;;;;;;2055312;28;20190;-73
2024/02/29 00:07:04;;;;;;;25.88;13.68;;;0.70;99.90;;;;;;2052696;28;20262;-72
2024/02/29 00:08:06;;;;;;;28.95;16.02;;;0.70;99.90;;;;;;2053293;28;20183;-71
2024/02/29 00:09:07;;;;;;;22.88;13.13;;;0.70;99.90;;;;;;2059415;28;20195;-72
2024/02/29 00:10:08;;;;;;;28.52;15.70;;;0.60;99.90;;;;;;2053910;28;20195;-72
2024/02/29 00:11:09;;;;;;;30.50;15.77;;;0.70;99.90;;;;;;2054380;28;20743;-71
2024/02/29 00:12:10;;;;;;;27.63;13.80;;;0.70;99.90;;;;;;2061552;28;20229;-72
2024/02/29 00:13:11;;;;;;;26.13;14.90;;;0.70;99.90;;;;;;2058242;28;20230;-72
2024/02/29 00:14:12;;;;;;;29.55;14.85;;;0.70;99.90;;;;;;2051270;28;20230;-74
2024/02/29 00:15:12;;;;;;;28.52;15.32;;;0.60;99.90;;;;;;2053758;28;20278;-72
2024/02/29 00:16:13;;;;;;;33.53;15.40;;;0.50;99.90;;;;;;2056701;28;21224;-73
2024/02/29 00:17:14;;;;;;;26.33;15.27;;;0.60;99.90;;;;;;2052998;28;20223;-73
2024/02/29 00:18:14;;;;;;;29.50;14.97;;;0.60;99.90;;;;;;2045259;28;20246;-72
2024/02/29 00:19:15;;;;;;;29.80;14.73;;;0.70;99.90;;;;;;2049450;28;20787;-72
2024/02/29 00:20:16;;;;;;;33.37;17.17;;;0.70;99.90;;;;;;2058566;28;20318;-73
2024/02/29 00:21:16;;;;;;;29.00;13.97;;;0.70;99.90;;;;;;2049822;28;20227;-74
2024/02/29 00:22:17;;;;;;;30.20;14.80;;;0.70;99.90;;;;;;2042611;28;20717;-72
2024/02/29 00:23:18;;;;;;;29.87;14.70;;;0.60;99.90;;;;;;2045383;28;20343;-73
2024/02/29 00:24:18;;;;;;;27.37;14.03;;;0.60;99.90;;;;;;2057975;28;20792;-73
2024/02/29 00:25:19;;;;;;;20.77;11.97;;;0.70;99.90;;;;;;2052549;28;20226;-73
2024/02/29 00:26:20;;;;;;;24.60;13.40;;;0.50;99.90;;;;;;2056984;28;20218;-74
2024/02/29 00:27:21;;;;;;;20.10;11.53;;;0.40;99.90;;;;;;2056743;28;20219;-74
2024/02/29 00:28:22;;;;;;;21.50;12.43;;;0.40;99.90;;;;;;2053131;28;20370;-74
2024/02/29 00:29:26;;;;;;;22.30;12.13;;;0.50;99.90;;;;;;2049018;28;20231;-73
2024/02/29 00:30:27;;;;;;;18.77;12.30;;;0.50;99.90;;;;;;2053258;28;20382;-72
2024/02/29 00:31:28;;;;;;;25.02;12.65;;;0.40;99.90;;;;;;2052020;28;20701;-73
2024/02/29 00:32:29;;;;;;;28.63;15.17;;;0.30;99.90;;;;;;2045065;28;20243;-73
2024/02/29 00:33:30;;;;;;;26.97;15.33;;;0.20;99.90;;;;;;2053840;28;20231;-74
2024/02/29 00:34:30;;;;;;;21.43;12.67;;;0.30;99.90;;;;;;2046683;28;20705;-72
2024/02/29 00:35:31;;;;;;;22.27;12.00;;;0.30;99.90;;;;;;2046217;28;20308;-72
2024/02/29 00:36:32;;;;;;;23.30;13.13;;;0.30;99.90;;;;;;2054118;28;20230;-72
2024/02/29 00:37:33;;;;;;;32.87;15.63;;;0.20;99.90;;;;;;2059819;28;20253;-72
2024/02/29 00:38:33;;;;;;;24.27;13.40;;;0.30;99.90;;;;;;2064047;28;20313;-72
2024/02/29 00:39:34;;;;;;;23.37;11.70;;;0.40;99.90;;;;;;2061969;28;20233;-71
2024/02/29 00:40:35;;;;;;;29.93;14.03;;;0.40;99.90;;;;;;2064778;28;20280;-71
2024/02/29 00:41:35;;;;;;;24.73;13.40;;;0.40;99.90;;;;;;2063353;28;20233;-72
2024/02/29 00:42:36;;;;;;;28.63;15.53;;;0.50;99.90;;;;;;2056137;28;20211;-75
2024/02/29 00:43:37;;;;;;;27.70;15.37;;;0.50;99.90;;;;;;2051025;28;20231;-73
2024/02/29 00:44:37;;;;;;;24.00;12.53;;;0.50;99.90;;;;;;2048983;28;20257;-75
2024/02/29 00:45:38;;;;;;;27.67;15.30;;;0.50;99.90;;;;;;2057263;28;20222;-74
2024/02/29 00:46:40;;;;;;;24.80;13.43;;;0.40;99.90;;;;;;2053389;28;20265;-73
2024/02/29 00:47:43;;;;;;;23.33;12.88;;;0.50;99.90;;;;;;2052199;28;20298;-74
2024/02/29 00:48:44;;;;;;;27.98;14.00;;;0.50;99.90;;;;;;2050491;28;20707;-74
2024/02/29 00:49:44;;;;;;;26.03;13.87;;;0.50;99.90;;;;;;2051827;28;20306;-72
2024/02/29 00:50:45;;;;;;;25.30;13.30;;;0.60;99.90;;;;;;2042602;28;20252;-74
2024/02/29 00:51:46;;;;;;;25.67;13.33;;;0.60;99.90;;;;;;2043154;29;20547;-74
2024/02/29 00:52:46;;;;;;;27.10;14.40;;;0.50;99.90;;;;;;2049170;28;20223;-74
2024/02/29 00:53:47;;;;;;;27.20;14.17;;;0.50;99.90;;;;;;2043222;28;20224;-73
2024/02/29 00:54:48;;;;;;;26.30;14.20;;;0.50;99.90;;;;;;2049447;28;20429;-74
2024/02/29 00:55:49;;;;;;;28.20;14.83;;;0.60;99.90;;;;;;2048397;28;20249;-73
2024/02/29 00:56:51;;;;;;;26.88;14.90;;;0.50;99.90;;;;;;2043255;28;20209;-74
2024/02/29 00:57:51;;;;;;;29.23;14.75;;;0.50;99.90;;;;;;2054400;28;20191;-72
2024/02/29 00:58:52;;;;;;;29.07;15.73;;;0.40;99.90;;;;;;2047543;28;20562;-73
2024/02/29 00:59:53;;;;;;;28.67;15.20;;;0.40;99.90;;;;;;2050996;28;20204;-75
2024/02/29 01:00:54;;;;;;;26.60;13.00;;;0.40;99.90;;;;;;2053114;28;20673;-75
2024/02/29 01:01:55;;;;;;;27.17;13.60;;;0.40;99.90;;;;;;2046630;28;20188;-74
2024/02/29 01:02:56;;;;;;;27.15;14.90;;;0.50;99.90;;;;;;2059609;28;20269;-73
2024/02/29 01:03:57;;;;;;;23.93;11.93;;;0.50;99.90;;;;;;2055783;28;20187;-74
2024/02/29 01:04:58;;;;;;;26.70;14.53;;;0.50;99.90;;;;;;2057861;28;20648;-77
2024/02/29 01:05:59;;;;;;;24.20;13.55;;;0.50;99.90;;;;;;2052031;28;20270;-72
2024/02/29 01:06:59;;;;;;;21.90;12.40;;;0.40;99.90;;;;;;2052971;28;20646;-73
2024/02/29 01:08:00;;;;;;;26.90;12.10;;;0.50;99.90;;;;;;2057689;28;20182;-73
2024/02/29 01:09:01;;;;;;;24.17;13.03;;;0.40;99.90;;;;;;2043002;28;20744;-74
2024/02/29 01:10:01;;;;;;;23.43;12.97;;;0.30;99.90;;;;;;2048585;28;20214;-74
2024/02/29 01:11:05;;;;;;;25.73;13.83;;;0.20;99.90;;;;;;2054681;28;20214;-71
2024/02/29 01:12:06;;;;;;;28.80;14.75;;;0.30;99.90;;;;;;2051471;28;20203;-73
2024/02/29 01:13:08;;;;;;;24.60;14.57;;;0.40;99.90;;;;;;2055466;28;20195;-73
2024/02/29 01:14:09;;;;;;;24.60;13.93;;;0.40;99.90;;;;;;2061966;28;20242;-79
2024/02/29 01:15:11;;;;;;;24.57;13.87;;;0.40;99.90;;;;;;2058906;28;20237;-73
2024/02/29 01:16:12;;;;;;;22.75;12.75;;;0.40;99.90;;;;;;2060006;28;20254;-73
2024/02/29 01:17:12;;;;;;;27.53;12.67;;;0.40;99.90;;;;;;2053531;28;20713;-72
2024/02/29 01:18:13;;;;;;;20.07;11.23;;;0.40;99.90;;;;;;2053587;28;20247;-72
2024/02/29 01:19:14;;;;;;;25.70;12.83;;;0.40;99.90;;;;;;2056106;28;20223;-73
2024/02/29 01:20:15;;;;;;;21.50;12.50;;;0.40;99.90;;;;;;2052416;28;20219;-73
2024/02/29 01:21:15;;;;;;;27.13;13.97;;;0.30;99.90;;;;;;2053929;28;20226;-74
2024/02/29 01:22:16;;;;;;;22.90;11.40;;;0.30;99.90;;;;;;2051157;28;20218;-74
2024/02/29 01:23:17;;;;;;;24.40;12.77;;;0.30;99.90;;;;;;2062011;28;20226;-74
2024/02/29 01:24:18;;;;;;;28.60;15.70;;;0.20;99.90;;;;;;2058273;28;20242;-74
2024/02/29 01:25:19;;;;;;;26.25;14.10;;;0.30;99.90;;;;;;2051884;28;20720;-74
2024/02/29 01:26:19;;;;;;;22.50;13.73;;;0.30;99.90;;;;;;2056847;28;20222;-73
2024/02/29 01:27:21;;;;;;;24.00;12.67;;;0.30;99.90;;;;;;2063180;28;20233;-75
2024/02/29 01:28:21;;;;;;;31.00;16.08;;;0.30;99.90;;;;;;2051959;28;20293;-75
2024/02/29 01:29:22;;;;;;;24.33;12.77;;;0.30;99.90;;;;;;2056363;28;20689;-73
2024/02/29 01:30:23;;;;;;;20.40;11.70;;;0.30;99.90;;;;;;2051791;28;20219;-74
2024/02/29 01:31:24;;;;;;;17.53;9.57;;;0.20;99.90;;;;;;2047641;28;20670;-74
2024/02/29 01:32:24;;;;;;;19.43;11.27;;;0.10;99.90;;;;;;2054125;28;20902;-74
2024/02/29 01:33:25;;;;;;;20.83;11.77;;;0.00;99.90;;;;;;2058932;28;20301;-74
2024/02/29 01:34:26;;;;;;;27.27;14.90;;;0.10;99.90;;;;;;2057744;28;20225;-74
2024/02/29 01:35:27;;;;;;;25.80;12.45;;;0.10;99.90;;;;;;2047372;28;20223;-74
2024/02/29 01:36:27;;;;;;;25.23;13.97;;;0.10;99.90;;;;;;2044865;28;20709;-75
2024/02/29 01:37:28;;;;;;;26.10;13.43;;;0.10;99.90;;;;;;2047564;28;20223;-74
2024/02/29 01:38:29;;;;;;;27.93;14.53;;;0.10;99.90;;;;;;2038485;29;20228;-74
2024/02/29 01:39:29;;;;;;;24.30;13.20;;;0.00;99.90;;;;;;2052533;28;20648;-73
2024/02/29 01:40:30;;;;;;;29.53;14.47;;;0.10;99.90;;;;;;2055104;28;20330;-74
2024/02/29 01:41:31;;;;;;;22.43;13.00;;;0.20;99.90;;;;;;2055401;28;20310;-73
2024/02/29 01:42:31;;;;;;;26.17;13.50;;;0.20;99.90;;;;;;2057705;28;20724;-73
2024/02/29 01:43:32;;;;;;;26.80;13.70;;;0.20;99.90;;;;;;2051822;28;20309;-73
2024/02/29 01:44:35;;;;;;;28.47;14.43;;;0.20;99.90;;;;;;2051163;28;20342;-72
2024/02/29 01:45:35;;;;;;;24.83;12.57;;;0.10;99.90;;;;;;2047618;28;20263;-72
2024/02/29 01:46:36;;;;;;;25.43;12.87;;;0.20;99.90;;;;;;2049395;28;20306;-72
2024/02/29 01:47:37;;;;;;;26.90;13.73;;;0.10;99.90;;;;;;2046754;28;20223;-72
2024/02/29 01:48:38;;;;;;;21.63;11.93;;;0.20;99.90;;;;;;2052854;28;20764;-73
2024/02/29 01:49:40;;;;;;;26.27;14.07;;;0.20;99.90;;;;;;2057243;28;20218;-74
2024/02/29 01:50:40;;;;;;;28.23;14.93;;;0.20;99.90;;;;;;2047969;28;20227;-72
2024/02/29 01:51:43;;;;;;;27.30;15.00;;;0.30;99.90;;;;;;2044356;28;20231;-72
2024/02/29 01:52:44;;;;;;;26.38;13.07;;;0.20;99.90;;;;;;2045916;28;20686;-72
2024/02/29 01:53:45;;;;;;;25.02;13.93;;;0.30;99.90;;;;;;2054160;28;20709;-72
2024/02/29 01:54:46;;;;;;;23.27;13.30;;;0.10;99.90;;;;;;2047065;28;20286;-72
2024/02/29 01:55:47;;;;;;;29.57;13.97;;;0.10;99.90;;;;;;2053419;28;20218;-73
2024/02/29 01:56:48;;;;;;;19.10;12.07;;;0.10;99.90;;;;;;2057641;28;20226;-73
2024/02/29 01:57:49;;;;;;;21.95;11.70;;;0.10;99.90;;;;;;2052583;28;20704;-72
2024/02/29 01:58:49;;;;;;;22.00;12.47;;;0.10;99.90;;;;;;2043394;29;20196;-72
2024/02/29 01:59:50;;;;;;;27.03;14.40;;;0.10;99.90;;;;;;2042413;28;20282;-72
2024/02/29 02:00:51;;;;;;;22.10;13.17;;;0.30;99.90;;;;;;2053502;28;20605;-71
2024/02/29 02:01:52;;;;;;;25.27;12.68;;;0.30;99.90;;;;;;2046029;28;20681;-73
2024/02/29 02:02:53;;;;;;;22.02;12.52;;;0.50;99.90;;;;;;2046890;28;20191;-72
2024/02/29 02:03:54;;;;;;;20.57;11.57;;;0.60;99.90;;;;;;2053977;28;20187;-72
2024/02/29 02:04:55;;;;;;;22.05;11.73;;;0.60;99.90;;;;;;2049404;28;20433;-72
2024/02/29 02:05:56;;;;;;;20.83;10.67;;;0.60;99.90;;;;;;2047133;28;20283;-72
2024/02/29 02:06:58;;;;;;;26.03;13.00;;;0.70;99.90;;;;;;2049514;28;20223;-72
2024/02/29 02:07:58;;;;;;;20.60;11.10;;;0.70;99.90;;;;;;2047541;28;20261;-72
2024/02/29 02:08:59;;;;;;;22.30;12.30;;;0.80;99.90;;;;;;2047442;28;20183;-72
2024/02/29 02:10:00;;;;;;;24.70;13.03;;;0.80;99.90;;;;;;2050832;28;20628;-72
2024/02/29 02:11:01;;;;;;;22.23;11.73;;;0.90;99.90;;;;;;2047142;28;20210;-72
2024/02/29 02:12:02;;;;;;;21.47;11.67;;;0.90;99.90;;;;;;2054887;28;20199;-72
2024/02/29 02:13:02;;;;;;;24.27;12.20;;;0.90;99.90;;;;;;2054991;28;20178;-72
2024/02/29 02:14:04;;;;;;;23.87;12.90;;;0.80;99.90;;;;;;2060479;28;20272;-73
2024/02/29 02:15:05;;;;;;;23.90;12.57;;;0.90;99.90;;;;;;2054556;28;20187;-72
2024/02/29 02:16:09;;;;;;;19.55;10.90;;;0.90;99.90;;;;;;2061373;28;20230;-72
2024/02/29 02:17:10;;;;;;;23.90;12.35;;;1.00;99.90;;;;;;2054136;28;20268;-72
2024/02/29 02:18:10;;;;;;;21.03;11.83;;;1.00;99.90;;;;;;2049918;28;20589;-73
2024/02/29 02:19:12;;;;;;;20.17;11.33;;;1.00;99.90;;;;;;2049856;28;20995;-73
2024/02/29 02:20:17;;;;;;;21.00;12.32;;;1.10;99.90;;;;;;2042358;28;20283;-73
2024/02/29 02:21:17;;;;;;;20.98;10.77;;;1.10;99.90;;;;;;2038899;29;20266;-72
2024/02/29 02:22:18;;;;;;;15.83;10.43;;;1.10;99.90;;;;;;2041846;29;20258;-73
2024/02/29 02:23:19;;;;;;;21.27;11.70;;;1.20;99.90;;;;;;2058544;28;20727;-73
2024/02/29 02:24:20;;;;;;;19.90;10.97;;;1.20;99.90;;;;;;2055062;28;20667;-73
2024/02/29 02:25:21;;;;;;;19.33;9.63;;;1.20;99.90;;;;;;2045095;28;20228;-73
2024/02/29 02:26:22;;;;;;;21.10;12.20;;;1.10;99.90;;;;;;2038392;29;20220;-73
2024/02/29 02:27:23;;;;;;;21.77;11.87;;;1.10;99.90;;;;;;2036599;28;20224;-72
2024/02/29 02:28:24;;;;;;;22.83;11.53;;;1.10;99.90;;;;;;2041932;28;20233;-73
2024/02/29 02:29:25;;;;;;;21.15;11.60;;;1.20;99.90;;;;;;2054120;28;20216;-73
2024/02/29 02:30:26;;;;;;;24.93;10.23;;;1.20;99.90;;;;;;2042875;28;20226;-72
2024/02/29 02:31:26;;;;;;;25.43;13.70;;;1.10;99.90;;;;;;2046129;28;20215;-73
2024/02/29 02:32:27;;;;;;;25.97;12.93;;;1.10;99.90;;;;;;2056960;28;20219;-73
2024/02/29 02:33:28;;;;;;;25.43;12.17;;;1.20;99.90;;;;;;2052254;28;20221;-73
2024/02/29 02:34:28;;;;;;;20.80;11.40;;;1.20;99.90;;;;;;2055577;28;20219;-73
2024/02/29 02:35:29;;;;;;;26.67;13.47;;;1.30;99.90;;;;;;2056993;28;20222;-73
2024/02/29 02:36:30;;;;;;;26.20;13.93;;;1.30;99.90;;;;;;2058863;28;20311;-73
2024/02/29 02:37:31;;;;;;;34.03;14.30;;;1.30;99.90;;;;;;2062091;28;20219;-72
2024/02/29 02:38:32;;;;;;;27.27;12.85;;;1.30;99.90;;;;;;2048794;28;20656;-73
2024/02/29 02:39:32;;;;;;;30.53;14.77;;;1.20;99.90;;;;;;2052900;28;20314;-72
2024/02/29 02:40:35;;;;;;;35.60;14.83;;;1.20;99.90;;;;;;2051577;28;20768;-72
2024/02/29 02:41:35;;;;;;;60.45;18.77;;;1.20;99.90;;;;;;2046384;28;20219;-72
2024/02/29 02:42:36;;;;;;;44.63;18.00;;;1.30;99.90;;;;;;2051258;28;20215;-72
2024/02/29 02:43:37;;;;;;;41.10;14.70;;;1.20;99.90;;;;;;2042165;28;20225;-72
2024/02/29 02:44:37;;;;;;;54.67;19.20;;;1.20;99.90;;;;;;2045650;28;20682;-73
2024/02/29 02:45:38;;;;;;;75.60;21.23;;;1.30;99.90;;;;;;2044011;28;20604;-72
2024/02/29 02:46:39;;;;;;;47.03;19.57;;;1.20;99.90;;;;;;2059077;28;20222;-72
2024/02/29 02:47:39;;;;;;;41.73;16.50;;;1.10;99.90;;;;;;2055515;28;20784;-74
2024/02/29 02:48:40;;;;;;;43.77;17.27;;;1.10;99.90;;;;;;2052789;28;20226;-73
2024/02/29 02:49:41;;;;;;;38.90;17.27;;;1.00;99.90;;;;;;2049883;28;20259;-73
2024/02/29 02:50:42;;;;;;;75.75;24.65;;;1.00;99.90;;;;;;2056064;28;20302;-73
2024/02/29 02:51:43;;;;;;;55.40;20.15;;;0.90;99.90;;;;;;2049734;28;20223;-73
2024/02/29 02:52:44;;;;;;;87.63;30.43;;;0.80;99.90;;;;;;2049287;28;20826;-73
2024/02/29 02:53:44;;;;;;;51.77;17.13;;;0.80;99.90;;;;;;2053433;28;20219;-73
2024/02/29 02:54:45;;;;;;;67.83;22.27;;;0.80;99.90;;;;;;2057820;28;20739;-73
2024/02/29 02:55:46;;;;;;;52.90;19.50;;;0.80;99.90;;;;;;2055395;28;20227;-73
2024/02/29 02:56:46;;;;;;;43.50;18.20;;;0.90;99.90;;;;;;2053787;28;20230;-72
2024/02/29 02:57:47;;;;;;;87.40;23.80;;;0.90;99.90;;;;;;2045692;28;20224;-74
2024/02/29 02:58:48;;;;;;;62.07;21.00;;;0.90;99.90;;;;;;2046426;28;20630;-72
2024/02/29 02:59:48;;;;;;;39.40;16.20;;;1.00;99.90;;;;;;2051415;28;20236;-72
2024/02/29 03:00:49;;;;;;;32.70;14.50;;;1.00;99.90;;;;;;2054668;28;20350;-71
2024/02/29 03:01:49;;;;;;;60.63;20.67;;;1.00;99.90;;;;;;2050662;28;20180;-72
2024/02/29 03:02:51;;;;;;;44.90;17.33;;;1.00;99.90;;;;;;2056220;28;20637;-72
2024/02/29 03:03:52;;;;;;;37.72;15.77;;;1.00;99.90;;;;;;2053469;28;20239;-72
2024/02/29 03:04:52;;;;;;;85.40;21.73;;;1.00;99.90;;;;;;2051488;28;20672;-72
2024/02/29 03:05:53;;;;;;;91.83;25.50;;;1.10;99.90;;;;;;2039900;28;20192;-72
2024/02/29 03:06:54;;;;;;;81.80;24.13;;;1.10;99.90;;;;;;2051756;28;20190;-73
2024/02/29 03:07:54;;;;;;;56.53;19.30;;;1.10;99.90;;;;;;2051874;28;20676;-73
2024/02/29 03:08:55;;;;;;;123.90;30.93;;;1.10;99.90;;;;;;2053843;28;20183;-72
2024/02/29 03:09:56;;;;;;;90.63;25.37;;;1.20;99.90;;;;;;2061240;28;20191;-73
2024/02/29 03:10:57;;;;;;;169.20;34.93;;;1.20;99.90;;;;;;2051550;28;20269;-73
2024/02/29 03:11:57;;;;;;;210.20;36.73;;;1.20;99.90;;;;;;2061298;28;20515;-73
2024/02/29 03:12:58;;;;;;;101.00;23.00;;;1.20;99.90;;;;;;2057059;28;20178;-73
2024/02/29 03:13:59;;;;;;;156.23;23.37;;;1.20;99.90;;;;;;2042302;28;20268;-72
2024/02/29 03:14:59;;;;;;;58.03;19.47;;;1.20;99.90;;;;;;2037882;29;20200;-72
2024/02/29 03:16:00;;;;;;;103.67;22.40;;;1.20;99.90;;;;;;2052438;28;20188;-72
2024/02/29 03:17:01;;;;;;;63.93;21.17;;;1.20;99.90;;;;;;2041614;28;20206;-72
2024/02/29 03:18:01;;;;;;;121.90;31.87;;;1.20;99.90;;;;;;2045824;28;20254;-72
2024/02/29 03:19:04;;;;;;;373.20;49.00;;;1.20;99.90;;;;;;2035726;29;20200;-74
2024/02/29 03:20:13;;;;;;;76.75;19.75;;;1.20;99.90;;;;;;2038030;28;20609;-72
2024/02/29 03:21:14;;;;;;;110.38;19.45;;;1.30;99.90;;;;;;2051277;28;20235;-72
2024/02/29 03:22:15;;;;;;;130.65;24.95;;;1.30;99.90;;;;;;2060978;28;20626;-72
2024/02/29 03:23:17;;;;;;;222.07;31.13;;;1.30;99.90;;;;;;2053638;28;20281;-72
2024/02/29 03:24:18;;;;;;;178.13;30.23;;;1.30;99.90;;;;;;2053574;28;20221;-72
2024/02/29 03:25:19;;;;;;;184.33;32.63;;;1.20;99.90;;;;;;2048905;28;20299;-72
2024/02/29 03:26:20;;;;;;;85.10;21.60;;;1.00;99.90;;;;;;2045480;28;20266;-74
2024/02/29 03:27:21;;;;;;;214.30;29.73;;;1.00;99.90;;;;;;2042204;28;20227;-73
2024/02/29 03:28:21;;;;;;;116.10;23.70;;;1.00;99.90;;;;;;2045919;28;20568;-73
2024/02/29 03:29:22;;;;;;;122.47;26.40;;;1.00;99.90;;;;;;2050056;28;20215;-73
2024/02/29 03:30:23;;;;;;;108.80;23.13;;;1.00;99.90;;;;;;2053337;28;20227;-72
2024/02/29 03:31:23;;;;;;;115.57;18.50;;;1.00;99.90;;;;;;2045671;28;20266;-74
2024/02/29 03:32:24;;;;;;;87.63;19.17;;;1.00;99.90;;;;;;2045887;28;20250;-73
2024/02/29 03:33:25;;;;;;;58.13;17.30;;;1.00;99.90;;;;;;2045749;28;20309;-72
2024/02/29 03:34:26;;;;;;;163.63;25.40;;;1.00;99.90;;;;;;2051369;28;20214;-74
2024/02/29 03:35:26;;;;;;;283.63;44.03;;;0.90;99.90;;;;;;2052553;28;20273;-74
2024/02/29 03:36:27;;;;;;;181.07;37.10;;;1.00;99.90;;;;;;2045597;28;20634;-73
2024/02/29 03:37:28;;;;;;;101.60;25.77;;;1.00;99.90;;;;;;2049535;28;20223;-73
2024/02/29 03:38:28;;;;;;;244.23;41.63;;;0.90;99.90;;;;;;2057568;28;20230;-72
2024/02/29 03:39:29;;;;;;;117.73;25.83;;;1.00;99.90;;;;;;2044792;28;20241;-72
2024/02/29 03:40:29;;;;;;;165.87;34.27;;;1.00;99.90;;;;;;2048716;28;20785;-72
2024/02/29 03:41:31;;;;;;;55.77;16.57;;;1.00;99.90;;;;;;2050652;28;20259;-72
2024/02/29 03:42:32;;;;;;;46.92;18.25;;;1.00;99.90;;;;;;2046610;28;20263;-73
2024/02/29 03:43:36;;;;;;;87.03;27.30;;;1.00;99.90;;;;;;2047516;28;20371;-72
2024/02/29 03:44:37;;;;;;;27.42;12.98;;;1.10;99.90;;;;;;2043197;28;20227;-73
2024/02/29 03:45:37;;;;;;;125.90;30.95;;;1.10;99.90;;;;;;2041591;28;20246;-71
2024/02/29 03:46:38;;;;;;;36.37;15.47;;;1.10;99.90;;;;;;2057195;28;20720;-73
2024/02/29 03:47:39;;;;;;;57.50;19.27;;;1.20;99.90;;;;;;2054191;28;20419;-72
2024/02/29 03:48:40;;;;;;;40.43;16.00;;;1.10;99.90;;;;;;2046089;28;20232;-73
2024/02/29 03:49:40;;;;;;;63.73;18.37;;;1.10;99.90;;;;;;2051689;28;20991;-73
2024/02/29 03:50:41;;;;;;;105.87;26.70;;;1.10;99.90;;;;;;2054544;28;20228;-72
2024/02/29 03:51:42;;;;;;;97.67;22.23;;;1.10;99.90;;;;;;2054738;28;20627;-72
2024/02/29 03:52:42;;;;;;;196.63;38.63;;;0.90;99.90;;;;;;2050541;28;20223;-72
2024/02/29 03:53:44;;;;;;;119.07;27.63;;;0.90;99.90;;;;;;2049547;28;20681;-72
2024/02/29 03:54:45;;;;;;;62.55;19.17;;;0.80;99.90;;;;;;2035393;29;20224;-72
2024/02/29 03:55:49;;;;;;;87.78;23.38;;;0.80;99.90;;;;;;2037251;28;20233;-72
2024/02/29 03:56:49;;;;;;;184.50;38.88;;;0.80;99.90;;;;;;2051656;28;20228;-71
2024/02/29 03:57:50;;;;;;;104.93;20.57;;;0.70;99.90;;;;;;2052623;28;20183;-71
2024/02/29 03:58:50;;;;;;;95.00;21.37;;;0.70;99.90;;;;;;2054146;28;20223;-72
2024/02/29 03:59:51;;;;;;;125.70;23.43;;;0.70;99.90;;;;;;2049127;28;20673;-72
2024/02/29 04:00:52;;;;;;;100.60;24.37;;;0.70;99.90;;;;;;2050661;28;20176;-72
2024/02/29 04:01:53;;;;;;;87.20;27.02;;;0.60;99.90;;;;;;2043559;28;20177;-73
2024/02/29 04:02:54;;;;;;;92.88;22.40;;;0.60;99.90;;;;;;2049664;28;20198;-72
2024/02/29 04:03:55;;;;;;;150.03;27.23;;;0.50;99.90;;;;;;2049718;28;20184;-73
2024/02/29 04:04:55;;;;;;;170.33;29.40;;;0.50;99.90;;;;;;2057242;28;20186;-73
2024/02/29 04:05:56;;;;;;;68.80;16.90;;;0.40;99.90;;;;;;2043009;28;20203;-73
2024/02/29 04:06:57;;;;;;;99.83;24.70;;;0.30;99.90;;;;;;2053326;28;20622;-72
2024/02/29 04:08:03;;;;;;;84.10;20.10;;;0.30;99.90;;;;;;2061088;28;20179;-73
2024/02/29 04:09:04;;;;;;;91.93;26.73;;;0.40;99.90;;;;;;2057271;28;20182;-73
2024/02/29 04:10:05;;;;;;;71.10;18.10;;;0.30;99.90;;;;;;2051465;28;20247;-73
2024/02/29 04:11:06;;;;;;;147.65;31.05;;;0.30;99.90;;;;;;2051227;28;20194;-73
2024/02/29 04:12:06;;;;;;;135.00;27.50;;;0.30;99.90;;;;;;2054233;28;20284;-74
2024/02/29 04:13:08;;;;;;;139.90;29.63;;;0.30;99.90;;;;;;2049290;28;20229;-74
2024/02/29 04:14:09;;;;;;;75.65;20.10;;;0.40;99.90;;;;;;2058826;28;20221;-72
2024/02/29 04:15:10;;;;;;;44.72;17.45;;;0.40;99.90;;;;;;2053914;28;20238;-72
2024/02/29 04:16:11;;;;;;;85.72;26.85;;;0.30;99.90;;;;;;2041289;28;20247;-72
2024/02/29 04:17:12;;;;;;;110.38;26.02;;;0.30;99.90;;;;;;2045781;28;20246;-72
2024/02/29 04:18:13;;;;;;;124.53;34.33;;;0.30;99.90;;;;;;2041927;28;20299;-73
2024/02/29 04:19:13;;;;;;;130.80;32.67;;;0.30;99.90;;;;;;2032646;29;20263;-73
2024/02/29 04:20:14;;;;;;;48.47;18.80;;;0.30;99.90;;;;;;2053169;28;20620;-73
2024/02/29 04:21:15;;;;;;;46.47;18.60;;;0.20;99.90;;;;;;2053502;28;20273;-73
2024/02/29 04:22:16;;;;;;;46.58;19.80;;;0.20;99.90;;;;;;2049644;28;20729;-73
2024/02/29 04:23:17;;;;;;;47.87;20.50;;;0.30;99.90;;;;;;2048974;28;20294;-73
2024/02/29 04:24:17;;;;;;;34.27;15.17;;;0.20;99.90;;;;;;2050097;28;20228;-73
2024/02/29 04:25:22;;;;;;;40.27;17.80;;;0.10;99.90;;;;;;2053714;28;20254;-73
2024/02/29 04:26:26;;;;;;;31.98;16.40;;;0.00;99.90;;;;;;2058834;28;20227;-73
2024/02/29 04:27:27;;;;;;;36.78;16.85;;;0.00;99.90;;;;;;2051656;28;20258;-72
2024/02/29 04:28:28;;;;;;;35.20;17.03;;;0.00;99.90;;;;;;2054127;28;20227;-73
2024/02/29 04:29:28;;;;;;;35.63;16.93;;;0.10;99.90;;;;;;2045832;28;20310;-72
2024/02/29 04:30:29;;;;;;;28.03;14.17;;;0.10;99.90;;;;;;2051893;28;20744;-72
2024/02/29 04:31:30;;;;;;;24.50;13.68;;;0.10;99.90;;;;;;2055184;28;20731;-72
2024/02/29 04:32:31;;;;;;;27.47;13.67;;;0.00;99.90;;;;;;2054538;28;20222;-72
2024/02/29 04:33:32;;;;;;;26.73;13.93;;;0.00;99.90;;;;;;2052119;28;20716;-72
2024/02/29 04:34:33;;;;;;;25.77;14.50;;;0.00;99.90;;;;;;2055817;28;20226;-73
2024/02/29 04:35:34;;;;;;;26.90;14.27;;;0.10;99.90;;;;;;2056592;28;20223;-72
2024/02/29 04:36:35;;;;;;;25.58;15.23;;;0.10;99.90;;;;;;2053381;28;20262;-72
2024/02/29 04:37:37;;;;;;;38.07;16.37;;;0.00;99.90;;;;;;2049142;28;20788;-72
2024/02/29 04:38:38;;;;;;;23.30;13.52;;;0.00;99.90;;;;;;2052920;28;20262;-72
2024/02/29 04:39:38;;;;;;;29.93;14.80;;;-0.10;99.90;;;;;;2061367;28;20234;-72
2024/02/29 04:40:39;;;;;;;28.00;13.87;;;-0.20;99.90;;;;;;2050669;28;20237;-73
2024/02/29 04:41:40;;;;;;;24.70;12.80;;;-0.20;99.90;;;;;;2052129;28;20933;-73
2024/02/29 04:42:41;;;;;;;24.53;13.60;;;-0.20;99.90;;;;;;2061150;28;20308;-73
2024/02/29 04:43:41;;;;;;;21.33;11.52;;;-0.20;99.90;;;;;;2051069;28;20225;-73
2024/02/29 04:44:42;;;;;;;22.40;12.73;;;-0.20;99.90;;;;;;2048800;28;20227;-72
2024/02/29 04:45:43;;;;;;;24.03;11.73;;;-0.30;99.90;;;;;;2049200;28;20211;-73
2024/02/29 04:46:44;;;;;;;21.40;12.33;;;-0.40;99.90;;;;;;2044113;28;20224;-73
2024/02/29 04:47:44;;;;;;;21.83;12.43;;;-0.40;99.90;;;;;;2042950;28;20245;-74
2024/02/29 04:48:45;;;;;;;22.40;12.40;;;-0.30;99.90;;;;;;2050603;28;20226;-73
2024/02/29 04:49:46;;;;;;;26.20;12.93;;;-0.30;99.90;;;;;;2053087;28;20335;-73
2024/02/29 04:50:46;;;;;;;22.70;12.10;;;-0.20;99.90;;;;;;2042710;28;20603;-73
2024/02/29 04:51:47;;;;;;;26.23;13.10;;;-0.20;99.90;;;;;;2039809;29;20260;-73
2024/02/29 04:52:48;;;;;;;19.87;11.50;;;-0.10;99.90;;;;;;2049022;28;20223;-73
2024/02/29 04:53:48;;;;;;;23.47;12.33;;;-0.10;99.90;;;;;;2049388;28;20243;-73
2024/02/29 04:54:49;;;;;;;21.37;11.90;;;-0.10;99.90;;;;;;2056065;28;20223;-72
2024/02/29 04:55:50;;;;;;;23.10;12.10;;;0.00;99.90;;;;;;2057033;28;20277;-73
2024/02/29 04:56:51;;;;;;;22.90;11.40;;;-0.20;99.90;;;;;;2037934;28;20191;-73
2024/02/29 04:57:51;;;;;;;21.27;11.50;;;-0.20;99.90;;;;;;2046083;28;20176;-73
2024/02/29 04:58:52;;;;;;;23.03;12.03;;;-0.10;99.90;;;;;;2057884;28;20369;-73
2024/02/29 04:59:53;;;;;;;22.80;12.57;;;-0.10;99.90;;;;;;2048242;28;20211;-72
2024/02/29 05:00:53;;;;;;;22.30;10.47;;;-0.10;99.90;;;;;;2047312;28;20180;-73
2024/02/29 05:01:54;;;;;;;25.30;12.37;;;-0.10;99.90;;;;;;2049113;28;20641;-72
2024/02/29 05:02:55;;;;;;;19.73;10.27;;;-0.20;99.90;;;;;;2051023;28;20227;-73
2024/02/29 05:03:56;;;;;;;19.50;11.05;;;-0.40;99.90;;;;;;2049887;28;20183;-73
2024/02/29 05:04:57;;;;;;;19.57;11.07;;;-0.30;99.90;;;;;;2052877;28;20560;-73
2024/02/29 05:05:57;;;;;;;25.50;12.30;;;-0.30;99.90;;;;;;2059901;28;20174;-73
2024/02/29 05:06:58;;;;;;;20.97;11.13;;;-0.20;99.90;;;;;;2054105;28;20179;-73
2024/02/29 05:08:00;;;;;;;21.03;10.93;;;-0.20;99.90;;;;;;2058521;28;20222;-74
2024/02/29 05:09:01;;;;;;;23.73;12.55;;;-0.20;99.90;;;;;;2041861;28;20737;-72
2024/02/29 05:10:02;;;;;;;20.93;11.63;;;-0.20;99.90;;;;;;2050083;28;20218;-72
2024/02/29 05:11:03;;;;;;;24.65;13.02;;;-0.20;99.90;;;;;;2057954;28;20186;-71
2024/02/29 05:12:04;;;;;;;27.83;14.43;;;-0.10;99.90;;;;;;2053265;28;20214;-72
2024/02/29 05:13:05;;;;;;;28.00;12.33;;;-0.10;99.90;;;;;;2044709;28;20441;-71